EXS68L LPPR-EGNX
Flight info
| Callsign | EXS68L |
|---|---|
| Flight time | N/A |
| Altitude | 37000 |
| Route | TURON P600 ASDEB DCT KORUL DCT EBOMO DCT RUSIB DCT NOZHU/N0451F370 DCT GIBSO L620 MID UM185 OCK Q3 HEMEL |
| Aircraft | A21N/M-SDE2E3FGHIRWXY/LB1 |
Departure
| Time | N/A |
|---|---|
| Airport | Francisco de Sá Carneiro Airport (LPPR) |
Arrival
| Time | 2026-05-07 22:15 |
|---|---|
| Airport | East Midlands Airport (EGNX) |
| Time | Latitude | Longitude | Altitude | Speed | Heading |
|---|---|---|---|---|---|
| 2026-05-07 21:19 | 48.22180 | -4.13988 | 36981 ft | 459 kts | 13° |
| 2026-05-07 21:19 | 48.28293 | -4.11341 | 36981 ft | 459 kts | 13° |
| 2026-05-07 21:20 | 48.34410 | -4.08685 | 36978 ft | 459 kts | 14° |
| 2026-05-07 21:20 | 48.40543 | -4.06016 | 36983 ft | 460 kts | 14° |
| 2026-05-07 21:21 | 48.46706 | -4.03328 | 36979 ft | 461 kts | 14° |
| 2026-05-07 21:21 | 48.52840 | -4.00644 | 37129 ft | 461 kts | 14° |
| 2026-05-07 21:22 | 48.58964 | -3.97957 | 37017 ft | 460 kts | 14° |
| 2026-05-07 21:22 | 48.65095 | -3.95263 | 36981 ft | 460 kts | 14° |
| 2026-05-07 21:23 | 48.71198 | -3.92574 | 36977 ft | 460 kts | 14° |
| 2026-05-07 21:23 | 48.77362 | -3.89853 | 36977 ft | 460 kts | 14° |
| 2026-05-07 21:24 | 48.83446 | -3.87161 | 36978 ft | 460 kts | 14° |
| 2026-05-07 21:24 | 48.89580 | -3.84440 | 36977 ft | 460 kts | 14° |
| 2026-05-07 21:25 | 48.95749 | -3.81992 | 36975 ft | 459 kts | 9° |
| 2026-05-07 21:25 | 49.02058 | -3.80585 | 36975 ft | 457 kts | 2° |
| 2026-05-07 21:26 | 49.08363 | -3.80089 | 36980 ft | 456 kts | 360° |
| 2026-05-07 21:26 | 49.14710 | -3.79738 | 36978 ft | 456 kts | 360° |
| 2026-05-07 21:27 | 49.21002 | -3.79372 | 36981 ft | 456 kts | 0° |
| 2026-05-07 21:27 | 49.27342 | -3.78992 | 36974 ft | 456 kts | 0° |
| 2026-05-07 21:28 | 49.33652 | -3.78608 | 36979 ft | 456 kts | 0° |
| 2026-05-07 21:28 | 49.39980 | -3.78223 | 36980 ft | 457 kts | 0° |
| 2026-05-07 21:29 | 49.46320 | -3.77838 | 36975 ft | 457 kts | 0° |
| 2026-05-07 21:29 | 49.52627 | -3.77456 | 36978 ft | 457 kts | 0° |
| 2026-05-07 21:30 | 49.58992 | -3.77066 | 36982 ft | 456 kts | 0° |
| 2026-05-07 21:30 | 49.65273 | -3.75917 | 36983 ft | 459 kts | 11° |
| 2026-05-07 21:31 | 49.71310 | -3.72867 | 36983 ft | 461 kts | 22° |
| 2026-05-07 21:31 | 49.76873 | -3.67972 | 36992 ft | 463 kts | 34° |
| 2026-05-07 21:32 | 49.82018 | -3.62066 | 37006 ft | 463 kts | 36° |
| 2026-05-07 21:32 | 49.87142 | -3.56065 | 37002 ft | 464 kts | 36° |
| 2026-05-07 21:33 | 49.92298 | -3.50051 | 37009 ft | 464 kts | 36° |
| 2026-05-07 21:33 | 49.97447 | -3.44052 | 37000 ft | 464 kts | 36° |
| 2026-05-07 21:34 | 50.02580 | -3.38062 | 37009 ft | 464 kts | 36° |
| 2026-05-07 21:34 | 50.07732 | -3.32035 | 37008 ft | 464 kts | 37° |
| 2026-05-07 21:35 | 50.12864 | -3.26016 | 37010 ft | 463 kts | 37° |
| 2026-05-07 21:35 | 50.17981 | -3.19996 | 37009 ft | 463 kts | 37° |
| 2026-05-07 21:36 | 50.23105 | -3.13953 | 37009 ft | 463 kts | 37° |
| 2026-05-07 21:36 | 50.28231 | -3.07890 | 37012 ft | 463 kts | 37° |
| 2026-05-07 21:37 | 50.33356 | -3.01813 | 37013 ft | 464 kts | 37° |
| 2026-05-07 21:37 | 50.38477 | -2.95722 | 37016 ft | 463 kts | 37° |
| 2026-05-07 21:38 | 50.43590 | -2.89626 | 37011 ft | 463 kts | 37° |
| 2026-05-07 21:38 | 50.48694 | -2.83524 | 37019 ft | 463 kts | 37° |
| 2026-05-07 21:39 | 50.53821 | -2.77377 | 37017 ft | 463 kts | 37° |
| 2026-05-07 21:39 | 50.58905 | -2.71267 | 37016 ft | 463 kts | 37° |
| 2026-05-07 21:40 | 50.64009 | -2.65117 | 37017 ft | 463 kts | 37° |
| 2026-05-07 21:40 | 50.69016 | -2.58879 | 37015 ft | 463 kts | 41° |
| 2026-05-07 21:41 | 50.73285 | -2.51342 | 37030 ft | 463 kts | 54° |
| 2026-05-07 21:41 | 50.76431 | -2.42493 | 37025 ft | 462 kts | 68° |
| 2026-05-07 21:42 | 50.78411 | -2.32932 | 37032 ft | 461 kts | 76° |
| 2026-05-07 21:42 | 50.80113 | -2.23212 | 37034 ft | 461 kts | 76° |
| 2026-05-07 21:43 | 50.81829 | -2.13486 | 37041 ft | 462 kts | 75° |
| 2026-05-07 21:43 | 50.83560 | -2.03686 | 37042 ft | 462 kts | 75° |
| 2026-05-07 21:44 | 50.85269 | -1.93943 | 37043 ft | 462 kts | 76° |
| 2026-05-07 21:44 | 50.86964 | -1.84215 | 37044 ft | 461 kts | 76° |
| 2026-05-07 21:45 | 50.88654 | -1.74486 | 37043 ft | 461 kts | 75° |
| 2026-05-07 21:45 | 50.90341 | -1.64725 | 37045 ft | 461 kts | 75° |
| 2026-05-07 21:46 | 50.92021 | -1.54958 | 37041 ft | 461 kts | 75° |
| 2026-05-07 21:46 | 50.93700 | -1.45146 | 37046 ft | 461 kts | 75° |
| 2026-05-07 21:47 | 50.95349 | -1.35413 | 37041 ft | 461 kts | 76° |
| 2026-05-07 21:47 | 50.96779 | -1.25508 | 37038 ft | 461 kts | 79° |
| 2026-05-07 21:48 | 50.98140 | -1.15658 | 37041 ft | 461 kts | 79° |
| 2026-05-07 21:48 | 50.99511 | -1.05724 | 37039 ft | 461 kts | 79° |
| 2026-05-07 21:49 | 51.00870 | -0.95824 | 37035 ft | 461 kts | 78° |
| 2026-05-07 21:49 | 51.02222 | -0.85918 | 36812 ft | 460 kts | 78° |
| 2026-05-07 21:50 | 51.02891 | -0.80984 | 36933 ft | 460 kts | 79° |
| 2026-05-07 21:50 | 51.03563 | -0.76016 | 36986 ft | 462 kts | 78° |
| 2026-05-07 21:50 | 51.05912 | -0.66566 | 36701 ft | 464 kts | 57° |
| 2026-05-07 21:51 | 51.07870 | -0.62514 | 36846 ft | 461 kts | 46° |
| 2026-05-07 21:51 | 51.10246 | -0.59091 | 36281 ft | 459 kts | 36° |
| 2026-05-07 21:51 | 51.12914 | -0.56421 | 36133 ft | 455 kts | 26° |
| 2026-05-07 21:51 | 51.15737 | -0.54230 | 35885 ft | 453 kts | 23° |
| 2026-05-07 21:52 | 51.18581 | -0.52148 | 35501 ft | 455 kts | 23° |
| 2026-05-07 21:52 | 51.21488 | -0.50017 | 34951 ft | 461 kts | 22° |
| 2026-05-07 21:52 | 51.24470 | -0.48112 | 34036 ft | 465 kts | 16° |
| 2026-05-07 21:52 | 51.27573 | -0.46604 | 33275 ft | 466 kts | 13° |
| 2026-05-07 21:53 | 51.30745 | -0.45426 | 32534 ft | 466 kts | 8° |
| 2026-05-07 21:53 | 51.33918 | -0.44687 | 31806 ft | 465 kts | 4° |
| 2026-05-07 21:53 | 51.37142 | -0.44338 | 31074 ft | 464 kts | 0° |
| 2026-05-07 21:53 | 51.40383 | -0.44132 | 30315 ft | 464 kts | 360° |
| 2026-05-07 21:54 | 51.43623 | -0.43963 | 29559 ft | 464 kts | 359° |
| 2026-05-07 21:54 | 51.46887 | -0.43796 | 28781 ft | 464 kts | 360° |
| 2026-05-07 21:54 | 51.50147 | -0.43623 | 27994 ft | 465 kts | 360° |
| 2026-05-07 21:54 | 51.53354 | -0.43447 | 27201 ft | 465 kts | 360° |
| 2026-05-07 21:55 | 51.56574 | -0.43266 | 26391 ft | 465 kts | 0° |
| 2026-05-07 21:55 | 51.59792 | -0.43083 | 25576 ft | 465 kts | 0° |
| 2026-05-07 21:55 | 51.62999 | -0.42898 | 25028 ft | 459 kts | 0° |
| 2026-05-07 21:55 | 51.66193 | -0.42715 | 24486 ft | 453 kts | 0° |
| 2026-05-07 21:56 | 51.69312 | -0.42537 | 23945 ft | 448 kts | 0° |
| 2026-05-07 21:56 | 51.72418 | -0.42359 | 23392 ft | 444 kts | 0° |
| 2026-05-07 21:56 | 51.75502 | -0.42180 | 22844 ft | 439 kts | 0° |
| 2026-05-07 21:56 | 51.78597 | -0.42259 | 22271 ft | 434 kts | 352° |
| 2026-05-07 21:57 | 51.81523 | -0.43305 | 21677 ft | 428 kts | 339° |
| 2026-05-07 21:57 | 51.84242 | -0.45289 | 21008 ft | 423 kts | 328° |
| 2026-05-07 21:57 | 51.86765 | -0.47699 | 20401 ft | 418 kts | 327° |
| 2026-05-07 21:57 | 51.89274 | -0.50189 | 19780 ft | 415 kts | 326° |
| 2026-05-07 21:58 | 51.91742 | -0.52644 | 19215 ft | 411 kts | 327° |
| 2026-05-07 21:58 | 51.94187 | -0.55063 | 18610 ft | 408 kts | 327° |
| 2026-05-07 21:58 | 51.96612 | -0.57449 | 18038 ft | 405 kts | 327° |
| 2026-05-07 21:58 | 51.99017 | -0.59810 | 17641 ft | 401 kts | 327° |
| 2026-05-07 21:59 | 52.01443 | -0.62192 | 17299 ft | 402 kts | 327° |
| 2026-05-07 21:59 | 52.03821 | -0.64526 | 16864 ft | 400 kts | 327° |
| 2026-05-07 21:59 | 52.06181 | -0.66845 | 16371 ft | 396 kts | 327° |
| 2026-05-07 21:59 | 52.08539 | -0.69166 | 15852 ft | 393 kts | 327° |
| 2026-05-07 22:00 | 52.10875 | -0.71467 | 15325 ft | 390 kts | 327° |
| 2026-05-07 22:00 | 52.13163 | -0.73723 | 14798 ft | 388 kts | 327° |
| 2026-05-07 22:00 | 52.15448 | -0.75981 | 14263 ft | 385 kts | 327° |
| 2026-05-07 22:00 | 52.17742 | -0.78252 | 13722 ft | 383 kts | 327° |
| 2026-05-07 22:01 | 52.19993 | -0.80481 | 13193 ft | 381 kts | 327° |
| 2026-05-07 22:01 | 52.22273 | -0.82741 | 12663 ft | 379 kts | 327° |
| 2026-05-07 22:01 | 52.24484 | -0.84933 | 12153 ft | 376 kts | 327° |
| 2026-05-07 22:01 | 52.26719 | -0.87142 | 11637 ft | 373 kts | 327° |
| 2026-05-07 22:02 | 52.28901 | -0.89299 | 11265 ft | 365 kts | 327° |
| 2026-05-07 22:02 | 52.31033 | -0.91409 | 11069 ft | 351 kts | 327° |
| 2026-05-07 22:02 | 52.33070 | -0.93432 | 10903 ft | 338 kts | 327° |
| 2026-05-07 22:02 | 52.35043 | -0.95393 | 10734 ft | 326 kts | 327° |
| 2026-05-07 22:03 | 52.36953 | -0.97293 | 10573 ft | 314 kts | 327° |
| 2026-05-07 22:03 | 52.38759 | -0.99091 | 10430 ft | 303 kts | 327° |
| 2026-05-07 22:03 | 52.40602 | -1.00606 | 10248 ft | 294 kts | 344° |
| 2026-05-07 22:03 | 52.42598 | -1.00772 | 9956 ft | 290 kts | 9° |
| 2026-05-07 22:04 | 52.44563 | -0.99940 | 9592 ft | 289 kts | 15° |
| 2026-05-07 22:04 | 52.46464 | -0.99048 | 9235 ft | 287 kts | 14° |
| 2026-05-07 22:04 | 52.48419 | -0.98837 | 8885 ft | 282 kts | 346° |
| 2026-05-07 22:04 | 52.50108 | -1.00348 | 8642 ft | 280 kts | 313° |
| 2026-05-07 22:05 | 52.51298 | -1.02856 | 8449 ft | 279 kts | 305° |
| 2026-05-07 22:05 | 52.52451 | -1.05409 | 8247 ft | 279 kts | 306° |
| 2026-05-07 22:05 | 52.53629 | -1.07918 | 7984 ft | 278 kts | 307° |
| 2026-05-07 22:05 | 52.54837 | -1.10413 | 7668 ft | 277 kts | 308° |
| 2026-05-07 22:06 | 52.56033 | -1.12838 | 7339 ft | 276 kts | 308° |
| 2026-05-07 22:06 | 52.57243 | -1.15269 | 6998 ft | 274 kts | 308° |
| 2026-05-07 22:06 | 52.58457 | -1.17694 | 6647 ft | 273 kts | 308° |
| 2026-05-07 22:06 | 52.59652 | -1.20075 | 6306 ft | 271 kts | 308° |
| 2026-05-07 22:07 | 52.60838 | -1.22436 | 5992 ft | 269 kts | 308° |
| 2026-05-07 22:07 | 52.62020 | -1.24793 | 5656 ft | 268 kts | 308° |
| 2026-05-07 22:07 | 52.63202 | -1.27150 | 5321 ft | 267 kts | 308° |
| 2026-05-07 22:07 | 52.64379 | -1.29499 | 4968 ft | 265 kts | 308° |
| 2026-05-07 22:08 | 52.65548 | -1.31833 | 4647 ft | 262 kts | 308° |
| 2026-05-07 22:08 | 52.66641 | -1.34165 | 4356 ft | 258 kts | 303° |
| 2026-05-07 22:08 | 52.67620 | -1.36587 | 4147 ft | 250 kts | 301° |
| 2026-05-07 22:08 | 52.68553 | -1.38969 | 3938 ft | 244 kts | 301° |
| 2026-05-07 22:09 | 52.69501 | -1.41247 | 3722 ft | 239 kts | 308° |
| 2026-05-07 22:09 | 52.70557 | -1.43286 | 3518 ft | 232 kts | 307° |
| 2026-05-07 22:09 | 52.71543 | -1.45331 | 3311 ft | 226 kts | 306° |
| 2026-05-07 22:09 | 52.72493 | -1.47334 | 3107 ft | 221 kts | 306° |
| 2026-05-07 22:10 | 52.73441 | -1.49333 | 2957 ft | 212 kts | 306° |
| 2026-05-07 22:10 | 52.74368 | -1.51036 | 2777 ft | 197 kts | 322° |
| 2026-05-07 22:10 | 52.75632 | -1.51534 | 2514 ft | 184 kts | 9° |
| 2026-05-07 22:10 | 52.76815 | -1.51046 | 2309 ft | 171 kts | 17° |
| 2026-05-07 22:11 | 52.77943 | -1.50545 | 2095 ft | 166 kts | 16° |
| 2026-05-07 22:11 | 52.79062 | -1.50109 | 1971 ft | 162 kts | 14° |
| 2026-05-07 22:11 | 52.80140 | -1.49741 | 1948 ft | 155 kts | 12° |
| 2026-05-07 22:11 | 52.81187 | -1.49412 | 1955 ft | 154 kts | 12° |
| 2026-05-07 22:12 | 52.82221 | -1.49023 | 1948 ft | 152 kts | 29° |
| 2026-05-07 22:12 | 52.82879 | -1.47777 | 1869 ft | 144 kts | 79° |
| 2026-05-07 22:12 | 52.82972 | -1.46155 | 1697 ft | 140 kts | 97° |
| 2026-05-07 22:12 | 52.82927 | -1.44555 | 1505 ft | 139 kts | 97° |
| 2026-05-07 22:13 | 52.82921 | -1.42962 | 1315 ft | 139 kts | 94° |
| 2026-05-07 22:13 | 52.82945 | -1.41363 | 1124 ft | 139 kts | 91° |
| 2026-05-07 22:13 | 52.82995 | -1.39783 | 943 ft | 138 kts | 91° |
| 2026-05-07 22:13 | 52.83014 | -1.38209 | 773 ft | 138 kts | 92° |
| 2026-05-07 22:14 | 52.83036 | -1.36614 | 596 ft | 137 kts | 91° |
| 2026-05-07 22:14 | 52.83061 | -1.35058 | 399 ft | 136 kts | 90° |
| 2026-05-07 22:14 | 52.83084 | -1.33569 | 309 ft | 113 kts | 89° |
| 2026-05-07 22:14 | 52.83104 | -1.32544 | 297 ft | 70 kts | 88° |
| 2026-05-07 22:15 | 52.83116 | -1.31788 | 289 ft | 55 kts | 88° |
| 2026-05-07 22:15 | 52.83126 | -1.31404 | 287 ft | 21 kts | 90° |
| 2026-05-07 22:15 | 52.83044 | -1.31317 | 287 ft | 12 kts | 179° |
| 2026-05-07 22:15 | 52.82964 | -1.31352 | 286 ft | 13 kts | 244° |
| 2026-05-07 22:16 | 52.82956 | -1.31523 | 283 ft | 16 kts | 268° |
| 2026-05-07 22:16 | 52.82942 | -1.31699 | 283 ft | 12 kts | 261° |
| 2026-05-07 22:16 | 52.82943 | -1.31845 | 283 ft | 12 kts | 276° |
| 2026-05-07 22:16 | 52.82947 | -1.31982 | 285 ft | 11 kts | 270° |
| 2026-05-07 22:17 | 52.82945 | -1.32110 | 287 ft | 10 kts | 268° |